Flight Track Log - Related Links

Times and Time Zones

All times are in EDT time to prevent confusion due to time zone crossing. See the DAL2033 flight status page for this flight to view local times or setup timezone preferences in your user account.

Time Position Orientation Groundspeed Altitude Reporting Facility
EDT Latitude Longitude Course Direction KTS MPH feet Rate Location/Type
Sun 03:26:18 PM 33.6667 -84.5000 North 232 267 3,100  Level Atlanta TRACON
Sun 03:27:00 PM 33.8250 -84.1667 North  Level FlightAware Approximate
Sun 03:27:18 PM 33.7000 -84.5833 296° West 272 313 6,000  Level Atlanta TRACON
Sun 03:28:00 PM 33.9181 -84.2514 320° Northwest  Level FlightAware Approximate
Sun 03:29:00 PM 34.0321 -84.2667 North  Level FlightAware Approximate
Sun 03:29:32 PM 33.8517 -84.5267 17° North 276 318 11,200  Level Atlanta Center
Sun 03:30:00 PM 34.1507 -84.2667 North  Level FlightAware Approximate
Sun 03:30:32 PM 33.9294 -84.4169 49° Northeast 323 372 12,600  Level Atlanta Center
Sun 03:31:00 PM 34.2692 -84.2667 North  Level FlightAware Approximate
Sun 03:31:32 PM 34.0275 -84.3672 23° Northeast 361 415 15,300  Level Atlanta Center
Sun 03:32:32 PM 34.1425 -84.3300 15° North 370 426 17,200 1,900 Climbing Atlanta Center
Sun 03:33:32 PM 34.2553 -84.2925 15° North 419 482 19,100 1,900 Climbing Atlanta Center
Sun 03:34:32 PM 34.3764 -84.2603 12° North 424 488 21,000 1,650 Climbing Atlanta Center
Sun 03:35:32 PM 34.4828 -84.2353 11° North 431 496 22,400 1,450 Climbing Atlanta Center
Sun 03:36:32 PM 34.6103 -84.2053 11° North 447 514 23,900 1,700 Climbing Atlanta Center
Sun 03:37:32 PM 34.7458 -84.1753 10° North 452 520 25,800 1,750 Climbing Atlanta Center
Sun 03:38:32 PM 34.8733 -84.1450 11° North 452 520 27,400 1,700 Climbing Atlanta Center
Sun 03:39:32 PM 34.9942 -84.1175 11° North 447 514 29,200 1,800 Climbing Atlanta Center
Sun 03:40:32 PM 35.1133 -84.0844 13° North 441 507 31,000 900 Climbing Atlanta Center
Sun 03:41:32 PM 35.2300 -84.0567 11° North 430 495 31,000  Level Atlanta Center
Sun 03:42:32 PM 35.3489 -84.0286 11° North 430 495 31,000  Level Atlanta Center
Sun 03:43:32 PM 35.4658 -84.0006 11° North 430 495 31,000  Level Atlanta Center
Sun 03:44:32 PM 35.5828 -83.9725 11° North 430 495 31,000  Level Atlanta Center
Sun 03:45:32 PM 35.7017 -83.9442 11° North 430 495 31,000  Level Atlanta Center
Sun 03:46:32 PM 35.8206 -83.9158 11° North 430 495 31,000  Level Atlanta Center
Sun 03:47:32 PM 35.9350 -83.8747 16° North 430 495 31,000  Level Atlanta Center
Sun 03:48:32 PM 36.0414 -83.8075 27° Northeast 425 489 31,000  Level Atlanta Center
Sun 03:49:32 PM 36.1475 -83.7378 28° Northeast 425 489 31,000  Level Atlanta Center
Sun 03:50:14 PM 36.2072 -83.6986 28° Northeast 435 501 31,000  Level Indianapolis Center
Sun 03:51:16 PM 36.3364 -83.6169 27° Northeast 435 501 31,000  Level Indianapolis Center
Sun 03:52:17 PM 36.4428 -83.5489 27° Northeast 431 496 31,000 -244 Level Indianapolis Center
Sun 03:53:19 PM 36.5492 -83.4811 27° Northeast 434 499 30,500 -976 Descending Indianapolis Center
Sun 03:54:20 PM 36.6564 -83.4056 29° Northeast 441 507 29,000 -732 Descending Indianapolis Center
Sun 03:55:22 PM 36.7583 -83.3086 37° Northeast 455 524 29,000  Level Indianapolis Center
Sun 03:56:24 PM 36.8617 -83.2128 37° Northeast 458 527 29,000  Level Indianapolis Center
Sun 03:57:25 PM 36.9661 -83.1161 36° Northeast 460 529 29,000  Level Indianapolis Center
Sun 03:58:27 PM 37.0719 -83.0161 37° Northeast 465 535 29,000  Level Indianapolis Center
Sun 03:59:28 PM 37.1747 -82.9169 38° Northeast 461 531 29,000  Level Indianapolis Center
Sun 04:00:30 PM 37.2914 -82.8044 37° Northeast 452 520 29,000  Level Indianapolis Center
Sun 04:01:31 PM 37.3922 -82.7069 38° Northeast 454 522 29,000  Level Indianapolis Center
Sun 04:02:33 PM 37.4936 -82.6103 37° Northeast 455 524 29,000  Level Indianapolis Center
Sun 04:03:35 PM 37.5917 -82.5147 38° Northeast 447 514 29,000  Level Indianapolis Center
Sun 04:04:36 PM 37.6919 -82.4200 37° Northeast 449 517 29,000  Level Indianapolis Center
Sun 04:05:38 PM 37.7917 -82.3236 37° Northeast 451 519 29,000  Level Indianapolis Center
Sun 04:06:39 PM 37.8906 -82.2267 38° Northeast 450 518 29,000  Level Indianapolis Center
Sun 04:07:41 PM 37.9836 -82.1344 38° Northeast 444 511 29,000  Level Indianapolis Center
Sun 04:08:43 PM 38.1017 -82.0186 38° Northeast 447 514 29,000  Level Indianapolis Center
Sun 04:09:44 PM 38.1975 -81.9217 38° Northeast 443 510 29,000  Level Indianapolis Center
Sun 04:10:46 PM 38.2953 -81.8258 38° Northeast 444 511 29,000  Level Indianapolis Center
Sun 04:11:47 PM 38.3875 -81.7200 42° Northeast 446 513 29,000  Level Indianapolis Center
Sun 04:12:49 PM 38.4703 -81.5992 49° Northeast 454 522 29,000  Level Indianapolis Center
Sun 04:13:51 PM 38.5525 -81.4806 48° Northeast 453 521 29,000  Level Indianapolis Center
Sun 04:14:52 PM 38.6497 -81.3408 48° Northeast 449 517 29,000  Level Indianapolis Center
Sun 04:15:54 PM 38.7311 -81.2236 48° Northeast 447 514 29,000  Level Indianapolis Center
Sun 04:16:55 PM 38.8139 -81.1042 48° Northeast 451 519 29,000  Level Indianapolis Center
Sun 04:17:57 PM 38.8975 -80.9825 49° Northeast 454 522 29,000  Level Indianapolis Center
Sun 04:18:59 PM 38.9814 -80.8611 48° Northeast 456 525 29,000  Level Indianapolis Center
Sun 04:20:00 PM 39.0647 -80.7411 48° Northeast 451 519 29,000  Level Indianapolis Center
Sun 04:21:02 PM 39.1506 -80.6236 47° Northeast 449 517 29,000  Level Indianapolis Center
Sun 04:22:04 PM 39.2522 -80.4803 47° Northeast 449 517 29,000  Level Indianapolis Center
Sun 04:23:05 PM 39.3367 -80.3622 47° Northeast 447 514 29,000  Level Indianapolis Center
Sun 04:24:07 PM 39.4219 -80.2419 47° Northeast 453 521 29,000  Level Indianapolis Center
Sun 04:25:15 PM 39.5264 -80.1014 46° Northeast 451 519 29,000  Level Cleveland Center
Sun 04:26:15 PM 39.6069 -79.9850 48° Northeast 451 519 29,000  Level Cleveland Center
Sun 04:27:15 PM 39.6897 -79.8600 49° Northeast 446 513 29,000  Level Cleveland Center
Sun 04:28:15 PM 39.7703 -79.7403 49° Northeast 441 507 29,000  Level Cleveland Center
Sun 04:29:15 PM 39.8525 -79.6203 48° Northeast 441 507 29,000  Level Cleveland Center
Sun 04:30:15 PM 39.9347 -79.4975 49° Northeast 441 507 29,000  Level Cleveland Center
Sun 04:31:15 PM 40.0169 -79.3767 48° Northeast 441 507 29,000  Level Cleveland Center
Sun 04:32:15 PM 40.0867 -79.2642 51° Northeast 436 502 29,000  Level Cleveland Center
Sun 04:33:15 PM 40.1686 -79.1431 48° Northeast 436 502 29,000  Level Cleveland Center
Sun 04:34:15 PM 40.2483 -79.0217 49° Northeast 442 509 29,000  Level Cleveland Center
Sun 04:35:15 PM 40.3300 -78.9000 49° Northeast 442 509 29,000  Level Cleveland Center
Sun 04:36:15 PM 40.4114 -78.7725 50° Northeast 437 503 29,000  Level Cleveland Center
Sun 04:37:15 PM 40.4906 -78.6503 50° Northeast 437 503 29,000  Level Cleveland Center
Sun 04:38:15 PM 40.5739 -78.5247 49° Northeast 442 509 29,000  Level Cleveland Center
Sun 04:39:53 PM 40.7150 -78.3092 49° Northeast 453 521 29,000  Level New York Center
Sun 04:40:53 PM 40.7961 -78.1811 50° Northeast 453 521 29,000  Level New York Center
Sun 04:41:53 PM 40.8769 -78.0553 50° Northeast 453 521 29,000  Level New York Center
Sun 04:42:53 PM 40.9594 -77.9322 48° Northeast 453 521 29,000  Level New York Center
Sun 04:43:53 PM 41.0417 -77.8114 48° Northeast 447 514 29,000  Level New York Center
Sun 04:44:53 PM 41.1169 -77.7036 47° Northeast 447 514 29,000  Level New York Center
Sun 04:45:53 PM 41.1964 -77.5875 48° Northeast 441 507 29,000  Level New York Center
Sun 04:46:53 PM 41.2783 -77.4661 48° Northeast 441 507 29,000  Level New York Center
Sun 04:47:53 PM 41.3669 -77.3367 48° Northeast 436 502 29,000  Level New York Center
Sun 04:48:53 PM 41.4467 -77.2142 49° Northeast 436 502 29,000  Level New York Center
Sun 04:49:53 PM 41.5192 -77.1047 48° Northeast 436 502 29,000  Level New York Center
Sun 04:50:53 PM 41.6006 -76.9847 48° Northeast 436 502 29,000  Level New York Center
Sun 04:51:53 PM 41.6794 -76.8644 49° Northeast 436 502 29,000  Level New York Center
Sun 04:52:53 PM 41.7606 -76.7439 48° Northeast 436 502 29,000 -274 Level New York Center
Sun 04:54:48 PM 41.9189 -76.5058 48° Northeast 435 501 28,200 -1,063 Descending Boston Center
Sun 04:55:48 PM 42.0028 -76.3769 49° Northeast 442 509 25,900 -2,050 Descending Boston Center
Sun 04:56:48 PM 42.0864 -76.2481 49° Northeast 448 516 24,100 -950 Descending Boston Center
Sun 04:57:48 PM 42.1658 -76.1153 51° Northeast 448 516 24,000 -50 Descending Boston Center
Sun 04:58:48 PM 42.2206 -75.9617 64° Northeast 448 516 24,000  Level Boston Center
Sun 04:59:48 PM 42.2756 -75.8047 65° Northeast 448 516 24,000  Level Boston Center
Sun 05:00:48 PM 42.3278 -75.6558 65° Northeast 442 509 24,000  Level Boston Center
Sun 05:01:48 PM 42.3778 -75.5067 66° East 442 509 24,000 -850 Level Boston Center
Sun 05:02:48 PM 42.4275 -75.3572 66° East 437 503 22,300 -2,250 Descending Boston Center
Sun 05:03:48 PM 42.4769 -75.2131 65° Northeast 426 490 19,500 -2,500 Descending Boston Center
Sun 05:04:48 PM 42.5056 -75.0650 75° East 418 481 17,300 -2,545 Descending Boston Center
Sun 05:06:00 PM 42.5431 -74.8750 75° East 407 468 13,900 -2,587 Descending Boston Center
Sun 05:06:37 PM 42.5575 -74.7908 77° East 387 445 12,600 -2,200 Descending Boston Center
Sun 05:07:00 PM 42.5692 -74.7322 75° East 389 448 11,700 -1,700 Descending Boston Center
Sun 05:07:37 PM 42.5853 -74.6539 74° East 375 432 10,900 -600 Descending Boston Center
Sun 05:08:00 PM 42.5922 -74.6089 78° East 376 433 11,100  Climbing Boston Center
Sun 05:08:38 PM 42.6106 -74.5219 74° East 367 422 10,900  Descending Boston Center
Sun 05:09:00 PM 42.6011 -74.4625 102° East 363 418 11,100 -436 Climbing Boston Center
Sun 05:09:33 PM 42.5794 -74.4053 117° Southeast 347 399 10,500 -900 Descending Boston Center
Sun 05:10:00 PM 42.5614 -74.3483 113° Southeast 339 390 10,200 -500 Descending Boston Center
Sun 05:10:33 PM 42.5436 -74.3000 117° Southeast 298 343 10,000 -900 Descending Boston Center
Sun 05:11:00 PM 42.5275 -74.2544 116° Southeast 296 341 9,300 -1,475 Descending Boston Center
Sun 05:11:34 PM 42.5097 -74.2061 117° Southeast 239 275 8,500 -1,800 Descending Boston Center
Sun 05:12:00 PM 42.4978 -74.1692 114° Southeast 260 299 7,500 -1,964 Descending Boston Center
Sun 05:12:29 PM 42.4836 -74.1292 116° Southeast 249 287 6,700 -1,400 Descending Boston Center
Sun 05:13:00 PM 42.4700 -74.0783 110° East 255 293 6,100 -1,500 Descending Boston Center
Sun 05:13:29 PM 42.4558 -74.0356 114° Southeast 266 306 5,200 -1,100 Descending Boston Center
Sun 05:14:00 PM 42.4442 -73.9875 108° East 261 300 5,000 -787 Descending Boston Center
Sun 05:14:30 PM 42.4383 -73.9453 101° East 252 290 4,400 -1,000 Descending Boston Center
Sun 05:15:00 PM 42.4389 -73.8944 89° East 242 278 4,000 -393 Descending Boston Center
Sun 05:15:31 PM 42.4500 -73.8556 69° East 238 274 4,000 -900 Level Boston Center
Sun 05:16:00 PM 42.4608 -73.8133 71° East 230 265 3,100 -1,300 Descending Boston Center
Sun 05:16:31 PM 42.4819 -73.7969 30° Northeast 198 228 2,700 -600 Descending Boston Center
Sun 05:17:00 PM 42.5050 -73.7919 North 182 209 2,500 -295 Descending Boston Center
Sun 05:17:32 PM 42.5278 -73.7953 354° North 158 182 2,400 -300 Descending Boston Center
Sun 05:18:00 PM 42.5528 -73.7986 354° North 152 175 2,200 -393 Descending Boston Center
Sun 05:18:33 PM 42.5778 -73.7992 359° North 168 193 2,000 -200 Descending Boston Center
Sun 05:19:00 PM 42.5903 -73.7994 359° North 159 183 2,000  Level Boston Center

Login

Don't have an account? Register now (free) for customized features, flight alerts, and more!